Time;durP1;ratioP1;P1;durP2;ratioP2;P2;SDS_P1;SDS_P2;PMS_P1;PMS_P2;Temp;Humidity;BMP_temperature;BMP_pressure;BME280_temperature;BME280_humidity;BME280_pressure;Samples;Min_cycle;Max_cycle;Signal;HPM_P1;HPM_P2
2023/07/11 00:01:17;;;;;;;1999.90;999.90;;;20.90;85.80;;;;;;5086692;28;20029;-73
2023/07/11 00:03:44;;;;;;;1999.90;999.90;;;20.90;87.10;;;;;;5086894;28;20808;-72
2023/07/11 00:06:19;;;;;;;1999.90;999.90;;;21.10;87.10;;;;;;5092556;28;20040;-72
2023/07/11 00:08:46;;;;;;;1999.90;999.90;;;21.30;87.40;;;;;;5087715;28;20372;-72
2023/07/11 00:11:17;;;;;;;1999.90;999.90;;;21.60;86.60;;;;;;5092706;28;20035;-72
2023/07/11 00:13:44;;;;;;;1999.90;999.90;;;22.10;84.30;;;;;;5097942;28;20028;-72
2023/07/11 00:16:14;;;;;;;1999.90;999.90;;;22.00;84.40;;;;;;5085722;28;20082;-72
2023/07/11 00:18:42;;;;;;;1999.90;999.90;;;22.30;84.40;;;;;;5104048;28;20487;-73
2023/07/11 00:21:09;;;;;;;1999.90;999.90;;;22.40;83.80;;;;;;5091921;28;20024;-73
2023/07/11 00:23:37;;;;;;;1999.90;999.90;;;22.70;83.50;;;;;;5089702;28;20038;-73
2023/07/11 00:26:07;;;;;;;1999.90;999.90;;;22.80;82.00;;;;;;5093268;28;20032;-73
2023/07/11 00:28:34;;;;;;;1999.90;999.90;;;23.00;82.40;;;;;;5091555;28;20479;-73
2023/07/11 00:31:02;;;;;;;1999.90;999.90;;;23.10;82.40;;;;;;5091057;28;20610;-74
2023/07/11 00:33:29;;;;;;;1999.90;999.90;;;23.10;82.40;;;;;;5094846;28;20378;-73
2023/07/11 00:35:56;;;;;;;1999.90;999.90;;;23.20;80.80;;;;;;5096873;28;20035;-73
2023/07/11 00:38:23;;;;;;;1999.90;999.90;;;23.20;81.30;;;;;;5091440;28;20024;-73
2023/07/11 00:40:52;;;;;;;1999.90;999.90;;;23.50;81.40;;;;;;5088855;28;20027;-73
2023/07/11 00:43:21;;;;;;;1999.90;999.90;;;23.70;79.90;;;;;;5096869;28;20032;-73
2023/07/11 00:46:14;;;;;;;1999.90;999.90;;;23.90;80.30;;;;;;5095994;28;20402;-74
2023/07/11 00:48:56;;;;;;;1999.90;999.90;;;24.30;80.40;;;;;;5092817;28;20061;-72
2023/07/11 00:51:32;;;;;;;1999.90;999.90;;;24.90;78.00;;;;;;5092144;28;20430;-73
2023/07/11 00:54:00;;;;;;;1999.90;999.90;;;25.00;77.20;;;;;;5093475;28;20054;-72
2023/07/11 00:56:34;;;;;;;1999.90;999.90;;;25.20;75.80;;;;;;5092446;28;20046;-73
2023/07/11 00:59:01;;;;;;;1999.90;999.90;;;25.20;76.20;;;;;;5088626;28;20487;-72
2023/07/11 01:01:29;;;;;;;1999.90;999.90;;;25.20;77.40;;;;;;5092787;28;20036;-72
2023/07/11 01:03:57;;;;;;;1999.90;999.90;;;25.40;76.20;;;;;;5092995;28;20040;-71
2023/07/11 01:06:27;;;;;;;1999.90;999.90;;;25.50;74.80;;;;;;5087992;28;20483;-72
2023/07/11 01:08:56;;;;;;;1999.90;999.90;;;25.60;75.00;;;;;;5097040;28;20494;-72
2023/07/11 01:11:27;;;;;;;1999.90;999.90;;;25.50;74.40;;;;;;5089939;28;20077;-72
2023/07/11 01:13:54;;;;;;;1999.90;999.90;;;25.40;73.60;;;;;;5095108;28;20081;-73
2023/07/11 01:16:22;;;;;;;1999.90;999.90;;;25.50;74.30;;;;;;5084773;28;20020;-72
2023/07/11 01:18:49;;;;;;;1999.90;999.90;;;25.60;75.40;;;;;;5093073;28;20168;-72
2023/07/11 01:21:21;;;;;;;1999.90;999.90;;;25.60;74.30;;;;;;5093009;28;20035;-72
2023/07/11 01:23:48;;;;;;;1999.90;999.90;;;25.60;74.20;;;;;;5098712;28;20030;-71
2023/07/11 01:26:16;;;;;;;1999.90;999.90;;;25.80;73.20;;;;;;5091723;28;20028;-72
2023/07/11 01:28:43;;;;;;;1999.90;999.90;;;25.80;73.20;;;;;;5093720;28;20036;-73
2023/07/11 01:31:11;;;;;;;1999.90;999.90;;;26.10;72.90;;;;;;5088848;28;20105;-72
2023/07/11 01:33:38;;;;;;;1999.90;999.90;;;26.20;72.30;;;;;;5100027;28;20397;-72
2023/07/11 01:36:06;;;;;;;1999.90;999.90;;;26.20;72.60;;;;;;5088789;28;20162;-73
2023/07/11 01:38:33;;;;;;;1999.90;999.90;;;26.20;72.30;;;;;;5088373;28;20023;-72
2023/07/11 01:41:00;;;;;;;1999.90;999.90;;;26.20;72.90;;;;;;5082887;28;20024;-72
2023/07/11 01:43:28;;;;;;;1999.90;999.90;;;26.10;71.50;;;;;;5091560;28;20028;-72
2023/07/11 01:45:55;;;;;;;1999.90;999.90;;;25.90;71.70;;;;;;5085819;28;20619;-72
2023/07/11 01:48:23;;;;;;;1999.90;999.90;;;25.90;72.20;;;;;;5089833;28;20038;-72
2023/07/11 01:50:51;;;;;;;1999.90;999.90;;;25.70;73.20;;;;;;5084921;28;20130;-72
2023/07/11 01:53:18;;;;;;;1999.90;999.90;;;26.00;72.90;;;;;;5088661;28;20020;-72
2023/07/11 01:56:01;;;;;;;1999.90;999.90;;;26.40;72.40;;;;;;5094245;28;20059;-71
2023/07/11 01:58:30;;;;;;;1999.90;999.90;;;26.50;73.10;;;;;;5095009;28;20154;-72
2023/07/11 02:00:58;;;;;;;1999.90;999.90;;;26.70;73.60;;;;;;5084275;28;20093;-71
2023/07/11 02:03:26;;;;;;;1999.90;999.90;;;27.10;72.90;;;;;;5084394;28;20027;-73
2023/07/11 02:05:53;;;;;;;1999.90;999.90;;;27.00;71.50;;;;;;5092440;28;20035;-72
2023/07/11 02:08:20;;;;;;;1999.90;999.90;;;26.80;72.30;;;;;;5091071;28;20044;-72
2023/07/11 02:10:47;;;;;;;1999.90;999.90;;;26.50;72.40;;;;;;5092854;28;20036;-73
2023/07/11 02:13:15;;;;;;;1999.90;999.90;;;26.60;73.00;;;;;;5101039;28;20024;-73
2023/07/11 02:15:42;;;;;;;1999.90;999.90;;;26.80;73.40;;;;;;5087900;28;20028;-73
2023/07/11 02:18:10;;;;;;;1999.90;999.90;;;26.70;72.30;;;;;;5096867;28;20074;-73
2023/07/11 02:20:44;;;;;;;1999.90;999.90;;;26.80;73.30;;;;;;5086656;28;20115;-73
2023/07/11 02:23:16;;;;;;;1999.90;999.90;;;26.90;72.50;;;;;;5091528;28;20120;-72
2023/07/11 02:25:43;;;;;;;1999.90;999.90;;;27.10;72.50;;;;;;5093802;28;20031;-72
2023/07/11 02:28:11;;;;;;;1999.90;999.90;;;26.90;71.70;;;;;;5091086;28;20054;-71
2023/07/11 02:30:38;;;;;;;1999.90;999.90;;;27.10;73.40;;;;;;5099823;28;20036;-74
2023/07/11 02:33:05;;;;;;;1999.90;999.90;;;27.30;72.90;;;;;;5093451;28;20035;-73
2023/07/11 02:35:33;;;;;;;1999.90;999.90;;;27.30;72.40;;;;;;5098316;28;20032;-73
2023/07/11 02:38:00;;;;;;;1999.90;999.90;;;27.20;71.60;;;;;;5093496;28;20046;-72
2023/07/11 02:40:27;;;;;;;1999.90;999.90;;;26.90;72.00;;;;;;5089837;28;20019;-73
2023/07/11 02:42:55;;;;;;;1999.90;999.90;;;26.80;72.90;;;;;;5101620;28;20024;-72
2023/07/11 02:45:22;;;;;;;1999.90;999.90;;;26.90;72.90;;;;;;5093845;28;20487;-73
2023/07/11 02:47:50;;;;;;;1999.90;999.90;;;26.60;71.30;;;;;;5092597;28;20028;-70
2023/07/11 02:50:17;;;;;;;1999.90;999.90;;;26.20;72.50;;;;;;5093061;28;20043;-71
2023/07/11 02:52:45;;;;;;;1999.90;999.90;;;26.00;72.50;;;;;;5097180;28;20495;-71
2023/07/11 02:55:12;;;;;;;1999.90;999.90;;;26.00;72.80;;;;;;5095091;28;20031;-72
2023/07/11 02:57:43;;;;;;;1999.90;999.90;;;26.00;73.10;;;;;;5103603;28;20016;-70
2023/07/11 03:00:11;;;;;;;1999.90;999.90;;;25.90;73.00;;;;;;5089850;28;20063;-73
2023/07/11 03:02:38;;;;;;;1999.90;999.90;;;26.00;73.60;;;;;;5096296;28;20387;-73
2023/07/11 03:05:06;;;;;;;1999.90;999.90;;;25.90;73.10;;;;;;5088044;28;20045;-73
2023/07/11 03:07:33;;;;;;;1999.90;999.90;;;25.70;73.40;;;;;;5103367;28;20030;-73
2023/07/11 03:10:01;;;;;;;1999.90;999.90;;;25.50;73.50;;;;;;5096588;28;20094;-73
2023/07/11 03:12:28;;;;;;;1999.90;999.90;;;25.30;75.00;;;;;;5088364;28;20035;-72
2023/07/11 03:14:55;;;;;;;1999.90;999.90;;;25.20;74.30;;;;;;5101628;28;20043;-73
2023/07/11 03:17:23;;;;;;;1999.90;999.90;;;25.00;73.80;;;;;;5101314;28;20076;-73
2023/07/11 03:19:50;;;;;;;1999.90;999.90;;;24.90;74.50;;;;;;5093550;28;20111;-72
2023/07/11 03:22:18;;;;;;;1999.90;999.90;;;24.70;74.70;;;;;;5096046;28;20029;-71
2023/07/11 03:24:46;;;;;;;1999.90;999.90;;;24.50;75.00;;;;;;5092118;28;20032;-72
2023/07/11 03:27:13;;;;;;;1999.90;999.90;;;24.30;75.40;;;;;;5094567;28;20032;-72
2023/07/11 03:29:40;;;;;;;1999.90;999.90;;;24.10;75.50;;;;;;5085334;28;20040;-70
2023/07/11 03:32:10;;;;;;;1999.90;999.90;;;23.90;75.10;;;;;;5087782;28;20086;-71
2023/07/11 03:34:38;;;;;;;1999.90;999.90;;;23.50;75.20;;;;;;5090814;28;20062;-69
2023/07/11 03:37:05;;;;;;;1999.90;999.90;;;23.00;75.60;;;;;;5089057;28;20024;-70
2023/07/11 03:39:33;;;;;;;1999.90;999.90;;;22.60;76.70;;;;;;5099777;28;20038;-69
2023/07/11 03:42:01;;;;;;;1999.90;999.90;;;22.20;77.40;;;;;;5090045;28;20075;-70
2023/07/11 03:44:28;;;;;;;1999.90;999.90;;;21.90;78.00;;;;;;5090950;28;20081;-71
2023/07/11 03:46:55;;;;;;;1999.90;999.90;;;21.50;78.20;;;;;;5091816;28;20039;-71
2023/07/11 03:49:23;;;;;;;1999.90;999.90;;;21.30;78.20;;;;;;5090357;28;20122;-70
2023/07/11 03:51:50;;;;;;;1999.90;999.90;;;21.00;78.40;;;;;;5094811;28;20028;-70
2023/07/11 03:54:17;;;;;;;1999.90;999.90;;;20.80;79.20;;;;;;5094677;28;20040;-68
2023/07/11 03:56:45;;;;;;;1999.90;999.90;;;20.60;79.00;;;;;;5097292;28;20019;-71
2023/07/11 03:59:12;;;;;;;1999.90;999.90;;;20.40;79.20;;;;;;5090498;28;20115;-73
2023/07/11 04:01:39;;;;;;;1999.90;999.90;;;20.20;79.50;;;;;;5096251;28;20030;-70
2023/07/11 04:04:06;;;;;;;1999.90;999.90;;;20.00;80.00;;;;;;5094064;28;20062;-69
2023/07/11 04:06:34;;;;;;;1999.90;999.90;;;19.80;80.50;;;;;;5092133;28;20031;-70
2023/07/11 04:09:01;;;;;;;1999.90;999.90;;;19.60;81.40;;;;;;5097809;28;20032;-71
2023/07/11 04:11:28;;;;;;;1999.90;999.90;;;19.50;80.90;;;;;;5097044;28;20483;-70
2023/07/11 04:13:56;;;;;;;1999.90;999.90;;;19.50;81.40;;;;;;5102911;28;20364;-69
2023/07/11 04:16:23;;;;;;;1999.90;999.90;;;19.60;81.50;;;;;;5089454;28;20336;-70
2023/07/11 04:18:51;;;;;;;1999.90;999.90;;;19.60;81.70;;;;;;5100581;28;20028;-71
2023/07/11 04:21:18;;;;;;;1999.90;999.90;;;19.50;81.90;;;;;;5094971;28;20051;-71
2023/07/11 04:23:47;;;;;;;1999.90;999.90;;;19.40;82.40;;;;;;5098586;28;20027;-70
2023/07/11 04:26:14;;;;;;;1999.90;999.90;;;19.30;82.20;;;;;;5094510;28;20111;-72
2023/07/11 04:28:41;;;;;;;1999.90;999.90;;;19.20;82.20;;;;;;5098762;28;20470;-70
2023/07/11 04:31:08;;;;;;;1999.90;999.90;;;19.00;82.30;;;;;;5095961;28;20046;-69
2023/07/11 04:33:36;;;;;;;1999.90;999.90;;;19.00;82.50;;;;;;5095071;28;20043;-70
2023/07/11 04:36:12;;;;;;;1999.90;999.90;;;19.00;82.10;;;;;;5095272;28;20027;-67
2023/07/11 04:38:39;;;;;;;1999.90;999.90;;;18.90;82.30;;;;;;5088763;28;20135;-70
2023/07/11 04:41:08;;;;;;;1999.90;999.90;;;18.80;82.50;;;;;;5089939;28;20042;-70
2023/07/11 04:43:35;;;;;;;1999.90;999.90;;;18.80;81.50;;;;;;5092828;28;20031;-69
2023/07/11 04:46:05;;;;;;;1999.90;999.90;;;18.80;80.80;;;;;;5089610;28;20024;-70
2023/07/11 04:48:33;;;;;;;1999.90;999.90;;;18.80;82.20;;;;;;5087804;28;20059;-69
2023/07/11 04:51:04;;;;;;;1999.90;999.90;;;18.80;81.10;;;;;;5089044;28;20036;-72
2023/07/11 04:53:33;;;;;;;1999.90;999.90;;;18.90;81.30;;;;;;5086595;28;20115;-72
2023/07/11 04:56:05;;;;;;;1999.90;999.90;;;18.80;82.00;;;;;;5087733;28;20032;-71
2023/07/11 04:58:34;;;;;;;1999.90;999.90;;;18.80;81.70;;;;;;5089911;28;20409;-71
2023/07/11 05:01:10;;;;;;;1999.90;999.90;;;18.70;82.20;;;;;;5086338;28;20062;-70
2023/07/11 05:03:39;;;;;;;1999.90;999.90;;;18.70;82.20;;;;;;5085208;28;20415;-71
2023/07/11 05:06:08;;;;;;;1999.90;999.90;;;18.60;82.30;;;;;;5087596;28;20071;-69
2023/07/11 05:08:36;;;;;;;1999.90;999.90;;;18.60;82.60;;;;;;5090007;28;20024;-70
2023/07/11 05:11:14;;;;;;;1999.90;999.90;;;18.60;82.70;;;;;;5085335;28;20040;-71
2023/07/11 05:13:44;;;;;;;1999.90;999.90;;;18.70;82.30;;;;;;5089026;28;20023;-71
2023/07/11 05:16:27;;;;;;;1999.90;999.90;;;18.70;81.60;;;;;;5083122;28;20036;-70
2023/07/11 05:18:57;;;;;;;1999.90;999.90;;;18.60;81.90;;;;;;5094248;28;20059;-70
2023/07/11 05:21:25;;;;;;;1999.90;999.90;;;18.60;82.10;;;;;;5082680;28;20542;-68
2023/07/11 05:23:55;;;;;;;1999.90;999.90;;;18.60;81.90;;;;;;5088444;28;20032;-69
2023/07/11 05:26:22;;;;;;;1999.90;999.90;;;18.50;82.30;;;;;;5092156;28;20031;-69
2023/07/11 05:28:50;;;;;;;1999.90;999.90;;;18.50;82.40;;;;;;5101357;28;20027;-69
2023/07/11 05:31:18;;;;;;;1999.90;999.90;;;18.40;82.70;;;;;;5089181;28;20039;-69
2023/07/11 05:33:46;;;;;;;1999.90;999.90;;;18.30;82.90;;;;;;5093579;28;20099;-68
2023/07/11 05:36:33;;;;;;;1999.90;999.90;;;18.20;83.30;;;;;;5092774;28;20491;-71
2023/07/11 05:39:11;;;;;;;1999.90;999.90;;;18.20;83.40;;;;;;5098509;28;20059;-69
2023/07/11 05:41:44;;;;;;;1999.90;999.90;;;18.10;83.60;;;;;;5091347;28;20027;-69
2023/07/11 05:44:13;;;;;;;1999.90;999.90;;;18.10;83.80;;;;;;5095081;28;20160;-68
2023/07/11 05:46:41;;;;;;;1999.90;999.90;;;18.10;83.40;;;;;;5087757;28;20045;-69
2023/07/11 05:49:08;;;;;;;1999.90;999.90;;;18.10;83.60;;;;;;5095211;28;20082;-69
2023/07/11 05:51:36;;;;;;;1999.90;999.90;;;18.00;84.40;;;;;;5091668;28;20065;-68
2023/07/11 05:54:03;;;;;;;1999.90;999.90;;;18.00;84.00;;;;;;5078509;28;20020;-71
2023/07/11 05:56:31;;;;;;;1999.90;999.90;;;18.00;84.10;;;;;;5091233;28;20423;-72
2023/07/11 05:58:59;;;;;;;1999.90;999.90;;;18.00;84.10;;;;;;5089407;28;20378;-70
2023/07/11 06:01:29;;;;;;;1999.90;999.90;;;18.00;84.20;;;;;;5091380;28;20031;-69
2023/07/11 06:04:12;;;;;;;1999.90;999.90;;;18.00;84.00;;;;;;5089370;28;20048;-70
2023/07/11 06:06:43;;;;;;;1999.90;999.90;;;18.10;83.70;;;;;;5086771;28;20028;-69
2023/07/11 06:09:17;;;;;;;1999.90;999.90;;;18.20;83.20;;;;;;5083525;28;20036;-69
2023/07/11 06:11:46;;;;;;;1999.90;999.90;;;18.30;82.90;;;;;;5094035;28;20451;-68
2023/07/11 06:14:14;;;;;;;1999.90;999.90;;;18.50;82.50;;;;;;5093355;28;20055;-68
2023/07/11 06:16:42;;;;;;;1999.90;999.90;;;18.60;82.60;;;;;;5101089;28;20435;-69
2023/07/11 06:19:10;;;;;;;1999.90;999.90;;;18.60;82.40;;;;;;5089633;28;20129;-68
2023/07/11 06:21:37;;;;;;;1999.90;999.90;;;18.70;82.50;;;;;;5101927;28;20111;-68
2023/07/11 06:24:04;;;;;;;1999.90;999.90;;;18.80;82.60;;;;;;5092936;28;20039;-69
2023/07/11 06:26:32;;;;;;;1999.90;999.90;;;18.90;82.10;;;;;;5089650;28;20059;-68
2023/07/11 06:28:59;;;;;;;1999.90;999.90;;;18.90;81.50;;;;;;5097699;28;20027;-68
2023/07/11 06:31:26;;;;;;;1999.90;999.90;;;19.00;81.80;;;;;;5086220;28;20036;-69
2023/07/11 06:33:54;;;;;;;1999.90;999.90;;;19.00;81.40;;;;;;5091735;28;20102;-69
2023/07/11 06:36:21;;;;;;;1999.90;999.90;;;18.90;81.80;;;;;;5092996;28;20035;-69
2023/07/11 06:38:48;;;;;;;1999.90;999.90;;;18.80;82.30;;;;;;5085863;28;20055;-69
2023/07/11 06:41:16;;;;;;;1999.90;999.90;;;18.60;82.70;;;;;;5090648;28;20128;-69
2023/07/11 06:43:43;;;;;;;1999.90;999.90;;;18.40;83.20;;;;;;5090875;28;20048;-69
2023/07/11 06:46:11;;;;;;;1999.90;999.90;;;18.20;83.90;;;;;;5085632;28;20032;-68
2023/07/11 06:48:38;;;;;;;1999.90;999.90;;;17.90;84.70;;;;;;5088619;28;20043;-69
2023/07/11 06:51:06;;;;;;;1999.90;999.90;;;17.70;85.10;;;;;;5083805;28;20505;-70
2023/07/11 06:53:34;;;;;;;1999.90;999.90;;;17.50;86.80;;;;;;5087073;28;20035;-69
2023/07/11 06:56:03;;;;;;;1999.90;999.90;;;17.30;87.40;;;;;;5088215;28;20040;-71
2023/07/11 06:58:30;;;;;;;1999.90;999.90;;;17.10;87.50;;;;;;5101818;27;20417;-72
2023/07/11 07:01:04;;;;;;;1999.90;999.90;;;16.90;88.10;;;;;;5092639;28;20027;-72
2023/07/11 07:03:32;;;;;;;1999.90;999.90;;;16.80;88.10;;;;;;5108766;28;20558;-72
2023/07/11 07:06:11;;;;;;;1999.90;999.90;;;16.70;88.30;;;;;;5086670;28;20505;-71
2023/07/11 07:08:39;;;;;;;1999.90;999.90;;;16.60;88.80;;;;;;5093350;28;20057;-72
2023/07/11 07:11:07;;;;;;;1999.90;999.90;;;16.50;89.40;;;;;;5087459;28;20035;-72
2023/07/11 07:13:34;;;;;;;1999.90;999.90;;;16.30;90.00;;;;;;5097864;28;20031;-71
2023/07/11 07:16:05;;;;;;;1999.90;999.90;;;16.10;90.10;;;;;;5094726;28;20030;-73
2023/07/11 07:18:34;;;;;;;1999.90;999.90;;;16.00;90.30;;;;;;5103011;28;20028;-71
2023/07/11 07:21:03;;;;;;;1999.90;999.90;;;15.90;90.30;;;;;;5083948;28;20364;-71
2023/07/11 07:23:33;;;;;;;1999.90;999.90;;;15.70;90.50;;;;;;5098401;28;20034;-72
2023/07/11 07:26:03;;;;;;;1999.90;999.90;;;15.50;90.80;;;;;;5100041;28;20119;-72
2023/07/11 07:28:32;;;;;;;1999.90;999.90;;;15.40;91.20;;;;;;5093666;28;20119;-71
2023/07/11 07:31:02;;;;;;;1999.90;999.90;;;15.30;91.40;;;;;;5094024;28;20036;-72
2023/07/11 07:33:29;;;;;;;1999.90;999.90;;;15.20;91.50;;;;;;5093324;28;20035;-71
2023/07/11 07:36:02;;;;;;;1999.90;999.90;;;15.00;91.90;;;;;;5099144;28;20092;-71
2023/07/11 07:38:30;;;;;;;1999.90;999.90;;;14.90;92.20;;;;;;5092258;28;20084;-70
2023/07/11 07:41:00;;;;;;;1999.90;999.90;;;14.70;92.50;;;;;;5092478;28;20024;-72
2023/07/11 07:43:30;;;;;;;1999.90;999.90;;;14.60;92.70;;;;;;5102172;28;20020;-74
2023/07/11 07:45:59;;;;;;;1999.90;999.90;;;14.50;93.10;;;;;;5088595;28;20099;-72
2023/07/11 07:48:27;;;;;;;1999.90;999.90;;;14.40;93.20;;;;;;5086961;28;20043;-72
2023/07/11 07:51:07;;;;;;;1999.90;999.90;;;14.30;93.40;;;;;;5094405;28;20080;-72
2023/07/11 07:53:34;;;;;;;1999.90;999.90;;;14.20;93.80;;;;;;5099806;28;20144;-71
2023/07/11 07:56:07;;;;;;;1999.90;999.90;;;14.00;93.90;;;;;;5093023;28;20024;-71
2023/07/11 07:58:35;;;;;;;1999.90;999.90;;;14.00;94.10;;;;;;5097692;28;20012;-71
2023/07/11 08:01:05;;;;;;;1999.90;999.90;;;13.90;94.30;;;;;;5092386;28;20062;-72
2023/07/11 08:03:36;;;;;;;1999.90;999.90;;;13.80;94.40;;;;;;5096487;28;20058;-71
2023/07/11 08:06:04;;;;;;;1999.90;999.90;;;13.70;94.70;;;;;;5099534;28;20123;-71
2023/07/11 08:08:32;;;;;;;1999.90;999.90;;;13.60;94.90;;;;;;5097015;28;20068;-71
2023/07/11 08:11:04;;;;;;;1999.90;999.90;;;13.50;95.30;;;;;;5092193;28;20043;-72
2023/07/11 08:13:32;;;;;;;1999.90;999.90;;;13.40;95.40;;;;;;5093308;28;20501;-72
2023/07/11 08:15:59;;;;;;;1999.90;999.90;;;13.30;95.80;;;;;;5090220;28;20153;-72
2023/07/11 08:18:28;;;;;;;1999.90;999.90;;;13.30;96.00;;;;;;5087839;28;20032;-73
2023/07/11 08:20:55;;;;;;;1999.90;999.90;;;13.20;96.30;;;;;;5088684;28;20494;-71
2023/07/11 08:23:23;;;;;;;1999.90;999.90;;;13.10;96.30;;;;;;5087987;28;20029;-72
2023/07/11 08:25:55;;;;;;;1999.90;999.90;;;13.00;96.40;;;;;;5101646;28;20382;-71
2023/07/11 08:28:23;;;;;;;1999.90;999.90;;;12.90;96.60;;;;;;5090841;28;20055;-72
2023/07/11 08:30:53;;;;;;;1999.90;999.90;;;12.80;96.90;;;;;;5079221;28;20036;-70
2023/07/11 08:33:20;;;;;;;1999.90;999.90;;;12.80;97.10;;;;;;5090592;28;20031;-72
2023/07/11 08:35:47;;;;;;;1999.90;999.90;;;12.70;97.20;;;;;;5083787;28;20031;-71
2023/07/11 08:38:15;;;;;;;1999.90;999.90;;;12.60;97.50;;;;;;5086303;28;20034;-72
2023/07/11 08:40:44;;;;;;;1999.90;999.90;;;12.50;97.80;;;;;;5091255;28;20024;-72
2023/07/11 08:43:30;;;;;;;1999.90;999.90;;;12.50;97.80;;;;;;5092233;28;20024;-71
2023/07/11 08:46:07;;;;;;;1999.90;999.90;;;12.50;97.80;;;;;;5090841;28;20056;-71
2023/07/11 08:48:42;;;;;;;1999.90;999.90;;;12.60;97.80;;;;;;5101976;28;20047;-71
2023/07/11 08:51:28;;;;;;;1999.90;999.90;;;12.60;97.80;;;;;;5091274;28;20035;-72
2023/07/11 08:54:30;;;;;;;1999.90;999.90;;;12.70;97.60;;;;;;5089810;28;20032;-71
2023/07/11 08:56:59;;;;;;;1999.90;999.90;;;12.70;97.40;;;;;;5076289;28;20044;-72
2023/07/11 09:00:05;;;;;;;1999.90;999.90;;;12.70;97.30;;;;;;5093148;28;20028;-73
2023/07/11 09:02:51;;;;;;;1999.90;999.90;;;12.70;97.40;;;;;;5042624;28;20064;-70
2023/07/11 09:06:10;;;;;;;1999.90;999.90;;;12.60;97.40;;;;;;5080720;28;20311;-72
2023/07/11 09:08:42;;;;;;;1999.90;999.90;;;12.50;97.60;;;;;;5050449;28;20536;-70
2023/07/11 09:11:30;;;;;;;1999.90;999.90;;;12.40;97.80;;;;;;5088633;28;20036;-70
2023/07/11 09:14:12;;;;;;;1999.90;999.90;;;12.20;97.90;;;;;;5081649;28;20070;-71
2023/07/11 09:16:52;;;;;;;1999.90;999.90;;;12.10;98.10;;;;;;5087431;28;20028;-70
2023/07/11 09:19:23;;;;;;;1999.90;999.90;;;12.10;98.60;;;;;;5084946;28;20383;-73
2023/07/11 09:22:26;;;;;;;1999.90;999.90;;;12.00;98.80;;;;;;5099283;28;20105;-72
2023/07/11 09:24:58;;;;;;;1999.90;999.90;;;11.90;98.90;;;;;;5095987;28;20376;-72
2023/07/11 09:27:34;;;;;;;1999.90;999.90;;;11.80;99.20;;;;;;5090791;28;20043;-72
2023/07/11 09:30:21;;;;;;;1999.90;999.90;;;11.70;99.30;;;;;;5084219;28;20036;-70
2023/07/11 09:32:49;;;;;;;1999.90;999.90;;;11.60;99.60;;;;;;5081245;28;20028;-72
2023/07/11 09:35:32;;;;;;;1999.90;999.90;;;11.60;99.90;;;;;;5089321;28;20406;-71
2023/07/11 09:38:48;;;;;;;1999.90;999.90;;;11.50;99.90;;;;;;5088787;28;20050;-71
2023/07/11 09:41:27;;;;;;;1999.90;999.90;;;11.40;99.90;;;;;;5092687;28;20109;-67
2023/07/11 09:43:55;;;;;;;1999.90;999.90;;;11.30;99.90;;;;;;5088970;28;20053;-70
2023/07/11 09:46:24;;;;;;;1999.90;999.90;;;11.30;99.90;;;;;;5083640;28;20059;-72
2023/07/11 09:48:56;;;;;;;1999.90;999.90;;;11.20;99.90;;;;;;5092487;28;20074;-72
2023/07/11 09:51:51;;;;;;;1999.90;999.90;;;11.10;99.90;;;;;;5085070;28;20032;-71
2023/07/11 09:54:25;;;;;;;1999.90;999.90;;;11.00;99.90;;;;;;5093252;28;20051;-70
2023/07/11 09:56:53;;;;;;;1999.90;999.90;;;10.90;99.90;;;;;;5094449;28;20180;-72
2023/07/11 09:59:21;;;;;;;1999.90;999.90;;;10.80;99.90;;;;;;5092670;28;20532;-72
2023/07/11 10:01:58;;;;;;;1999.90;999.90;;;10.70;99.90;;;;;;5082344;28;20032;-71
2023/07/11 10:04:27;;;;;;;1999.90;999.90;;;10.70;99.90;;;;;;5083594;28;21071;-70
2023/07/11 10:06:58;;;;;;;1999.90;999.90;;;10.70;99.90;;;;;;5094797;28;20029;-69
2023/07/11 10:09:36;;;;;;;1999.90;999.90;;;10.60;99.90;;;;;;5087181;28;20032;-69
2023/07/11 10:12:13;;;;;;;1999.90;999.90;;;10.50;99.90;;;;;;5092854;28;20485;-69
2023/07/11 10:14:43;;;;;;;1999.90;999.90;;;10.50;99.90;;;;;;5082274;28;20515;-69
2023/07/11 10:17:21;;;;;;;1999.90;999.90;;;10.40;99.90;;;;;;5094319;28;20129;-69
2023/07/11 10:20:00;;;;;;;1999.90;999.90;;;10.40;99.90;;;;;;5091562;28;20570;-69
2023/07/11 10:22:31;;;;;;;1999.90;999.90;;;10.30;99.90;;;;;;5099208;28;20028;-70
2023/07/11 10:25:24;;;;;;;1999.90;999.90;;;10.30;99.90;;;;;;5084460;28;20044;-69
2023/07/11 10:28:25;;;;;;;1999.90;999.90;;;10.20;99.90;;;;;;5097618;28;20498;-69
2023/07/11 10:30:53;;;;;;;1999.90;999.90;;;10.20;99.90;;;;;;5093021;28;20059;-71
2023/07/11 10:33:31;;;;;;;1999.90;999.90;;;10.20;99.90;;;;;;5100549;28;20102;-69
2023/07/11 10:36:24;;;;;;;1999.90;999.90;;;10.10;99.90;;;;;;5096579;28;20425;-70
2023/07/11 10:39:07;;;;;;;1999.90;999.90;;;10.00;99.90;;;;;;5103100;28;20478;-70
2023/07/11 10:41:47;;;;;;;1999.90;999.90;;;10.00;99.90;;;;;;5086094;28;20024;-72
2023/07/11 10:44:26;;;;;;;1999.90;999.90;;;10.00;99.90;;;;;;5096440;28;20028;-70
2023/07/11 10:46:55;;;;;;;1999.90;999.90;;;10.00;99.90;;;;;;5099437;28;20482;-70
2023/07/11 10:49:31;;;;;;;1999.90;999.90;;;9.90;99.90;;;;;;5099400;28;20028;-71
2023/07/11 10:52:05;;;;;;;;;;;9.90;99.90;;;;;;5097667;28;20042;-71
2023/07/11 10:54:53;;;;;;;1999.90;999.90;;;9.90;99.90;;;;;;5085144;28;19926;-70
2023/07/11 10:57:40;;;;;;;1999.90;999.90;;;9.90;99.90;;;;;;5095810;28;20066;-70
2023/07/11 11:00:16;;;;;;;;;;;9.90;99.90;;;;;;5097343;28;20028;-71
2023/07/11 11:02:58;;;;;;;1999.90;999.90;;;9.90;99.90;;;;;;5102471;28;20001;-70
2023/07/11 11:05:35;;;;;;;1999.90;999.90;;;9.80;99.90;;;;;;5092447;28;20052;-71
2023/07/11 11:08:10;;;;;;;1999.90;999.90;;;10.00;99.90;;;;;;5097831;28;20038;-71
2023/07/11 11:10:37;;;;;;;1999.90;999.90;;;10.10;99.90;;;;;;5100752;28;20071;-72
2023/07/11 11:13:35;;;;;;;1999.90;999.90;;;10.20;99.90;;;;;;5100408;28;20024;-72
2023/07/11 11:16:28;;;;;;;1999.90;999.90;;;10.30;99.90;;;;;;5098486;28;20081;-70
2023/07/11 11:18:58;;;;;;;1999.90;999.90;;;10.30;99.90;;;;;;5094642;28;20024;-70
2023/07/11 11:21:50;;;;;;;1999.90;999.90;;;10.20;99.90;;;;;;5095502;28;20031;-69
2023/07/11 11:24:36;;;;;;;1999.90;999.90;;;10.10;99.90;;;;;;5103360;28;20051;-70
2023/07/11 11:27:21;;;;;;;1999.90;999.90;;;10.00;99.90;;;;;;5100729;28;20098;-70
2023/07/11 11:30:01;;;;;;;1999.90;999.90;;;9.90;99.90;;;;;;5090677;28;20366;-70
2023/07/11 11:32:48;;;;;;;1999.90;999.90;;;9.80;99.90;;;;;;5079053;28;20040;-71
2023/07/11 11:35:21;;;;;;;1999.90;999.90;;;9.70;99.90;;;;;;5089086;28;20033;-72
2023/07/11 11:38:20;;;;;;;1999.90;999.90;;;9.60;99.90;;;;;;5103570;28;20541;-71
2023/07/11 11:40:52;;;;;;;1999.90;999.90;;;9.50;99.90;;;;;;5087617;28;20695;-71
2023/07/11 11:43:23;;;;;;;1999.90;999.90;;;9.40;99.90;;;;;;5095862;28;20162;-71
2023/07/11 11:45:51;;;;;;;1999.90;999.90;;;9.30;99.90;;;;;;5094108;28;20068;-71
2023/07/11 11:48:23;;;;;;;1999.90;999.90;;;9.20;99.90;;;;;;5095367;28;20575;-71
2023/07/11 11:50:52;;;;;;;1999.90;999.90;;;9.20;99.90;;;;;;5088505;28;20069;-69
2023/07/11 11:53:30;;;;;;;1999.90;999.90;;;9.20;99.90;;;;;;5091189;28;20111;-69
2023/07/11 11:56:01;;;;;;;1999.90;999.90;;;9.20;99.90;;;;;;5093438;28;20028;-69
2023/07/11 11:58:31;;;;;;;1999.90;999.90;;;9.10;99.90;;;;;;5084916;28;20471;-70
2023/07/11 12:01:02;;;;;;;1999.90;999.90;;;9.00;99.90;;;;;;5088044;28;20028;-73
2023/07/11 12:03:35;;;;;;;1999.90;999.90;;;9.00;99.90;;;;;;5090189;28;20032;-70
2023/07/11 12:06:24;;;;;;;1999.90;999.90;;;9.10;99.90;;;;;;5093903;28;20398;-70
2023/07/11 12:09:16;;;;;;;1999.90;999.90;;;9.10;99.90;;;;;;5089875;28;20027;-70
2023/07/11 12:12:11;;;;;;;1999.90;999.90;;;9.20;99.90;;;;;;5101465;28;20076;-70
2023/07/11 12:14:52;;;;;;;1999.90;999.90;;;9.30;99.90;;;;;;5084211;28;20031;-70
2023/07/11 12:17:34;;;;;;;1999.90;999.90;;;9.20;99.90;;;;;;5091170;28;20395;-70
2023/07/11 12:20:07;;;;;;;1999.90;999.90;;;9.10;99.90;;;;;;5086730;28;20021;-69
2023/07/11 12:22:40;;;;;;;1999.90;999.90;;;9.00;99.90;;;;;;5090001;28;20024;-70
2023/07/11 12:25:28;;;;;;;1999.90;999.90;;;8.90;99.90;;;;;;5092675;28;20049;-70